sensor_id;sensor_type;location;lat;lon;timestamp;temperature;humidity
16627;DHT22;8427;52.204;7.202;2024-01-25T00:00:06;7.80;83.30
16627;DHT22;8427;52.204;7.202;2024-01-25T00:02:34;7.70;83.10
16627;DHT22;8427;52.204;7.202;2024-01-25T00:05:04;7.70;83.10
16627;DHT22;8427;52.204;7.202;2024-01-25T00:07:34;7.60;82.90
16627;DHT22;8427;52.204;7.202;2024-01-25T00:10:03;7.80;83.00
16627;DHT22;8427;52.204;7.202;2024-01-25T00:12:34;7.70;82.90
16627;DHT22;8427;52.204;7.202;2024-01-25T00:15:04;7.90;83.10
16627;DHT22;8427;52.204;7.202;2024-01-25T00:17:32;7.80;83.00
16627;DHT22;8427;52.204;7.202;2024-01-25T00:20:01;7.90;82.90
16627;DHT22;8427;52.204;7.202;2024-01-25T00:22:30;7.80;83.10
16627;DHT22;8427;52.204;7.202;2024-01-25T00:25:00;7.80;83.10
16627;DHT22;8427;52.204;7.202;2024-01-25T00:27:29;7.80;82.90
16627;DHT22;8427;52.204;7.202;2024-01-25T00:29:57;7.80;83.00
16627;DHT22;8427;52.204;7.202;2024-01-25T00:32:25;7.80;83.00
16627;DHT22;8427;52.204;7.202;2024-01-25T00:34:55;8.00;82.80
16627;DHT22;8427;52.204;7.202;2024-01-25T00:37:24;7.70;83.00
16627;DHT22;8427;52.204;7.202;2024-01-25T00:39:53;7.60;83.20
16627;DHT22;8427;52.204;7.202;2024-01-25T00:42:24;7.90;83.20
16627;DHT22;8427;52.204;7.202;2024-01-25T00:44:53;7.70;83.00
16627;DHT22;8427;52.204;7.202;2024-01-25T00:47:22;7.80;82.90
16627;DHT22;8427;52.204;7.202;2024-01-25T00:49:52;7.70;82.90
16627;DHT22;8427;52.204;7.202;2024-01-25T00:52:21;7.80;82.80
16627;DHT22;8427;52.204;7.202;2024-01-25T00:54:50;7.90;82.80
16627;DHT22;8427;52.204;7.202;2024-01-25T00:57:19;7.70;82.60
16627;DHT22;8427;52.204;7.202;2024-01-25T00:59:50;7.60;82.80
16627;DHT22;8427;52.204;7.202;2024-01-25T01:02:20;7.80;82.80
16627;DHT22;8427;52.204;7.202;2024-01-25T01:04:50;7.70;83.10
16627;DHT22;8427;52.204;7.202;2024-01-25T01:07:19;7.60;82.80
16627;DHT22;8427;52.204;7.202;2024-01-25T01:09:48;7.80;82.70
16627;DHT22;8427;52.204;7.202;2024-01-25T01:12:17;7.70;82.80
16627;DHT22;8427;52.204;7.202;2024-01-25T01:14:45;7.70;82.70
16627;DHT22;8427;52.204;7.202;2024-01-25T01:17:15;7.60;82.80
16627;DHT22;8427;52.204;7.202;2024-01-25T01:19:45;7.70;82.60
16627;DHT22;8427;52.204;7.202;2024-01-25T01:22:14;7.60;82.70
16627;DHT22;8427;52.204;7.202;2024-01-25T01:24:43;7.50;82.40
16627;DHT22;8427;52.204;7.202;2024-01-25T01:27:11;7.70;82.80
16627;DHT22;8427;52.204;7.202;2024-01-25T01:29:39;7.70;82.50
16627;DHT22;8427;52.204;7.202;2024-01-25T01:32:08;7.60;82.60
16627;DHT22;8427;52.204;7.202;2024-01-25T01:34:38;7.50;82.40
16627;DHT22;8427;52.204;7.202;2024-01-25T01:37:07;7.60;82.20
16627;DHT22;8427;52.204;7.202;2024-01-25T01:39:35;7.50;82.30
16627;DHT22;8427;52.204;7.202;2024-01-25T01:42:04;7.50;82.40
16627;DHT22;8427;52.204;7.202;2024-01-25T01:44:32;7.40;82.30
16627;DHT22;8427;52.204;7.202;2024-01-25T01:47:02;7.30;82.30
16627;DHT22;8427;52.204;7.202;2024-01-25T01:49:31;7.40;82.60
16627;DHT22;8427;52.204;7.202;2024-01-25T01:52:01;7.00;82.20
16627;DHT22;8427;52.204;7.202;2024-01-25T01:54:30;7.10;82.40
16627;DHT22;8427;52.204;7.202;2024-01-25T01:56:59;7.30;82.40
16627;DHT22;8427;52.204;7.202;2024-01-25T01:59:28;7.00;82.20
16627;DHT22;8427;52.204;7.202;2024-01-25T02:01:56;7.30;82.40
16627;DHT22;8427;52.204;7.202;2024-01-25T02:04:25;7.10;82.60
16627;DHT22;8427;52.204;7.202;2024-01-25T02:06:54;7.00;82.30
16627;DHT22;8427;52.204;7.202;2024-01-25T02:09:25;6.90;82.30
16627;DHT22;8427;52.204;7.202;2024-01-25T02:12:00;7.00;82.40
16627;DHT22;8427;52.204;7.202;2024-01-25T02:14:30;6.90;82.50
16627;DHT22;8427;52.204;7.202;2024-01-25T02:16:59;7.10;82.90
16627;DHT22;8427;52.204;7.202;2024-01-25T02:19:27;6.80;82.80
16627;DHT22;8427;52.204;7.202;2024-01-25T02:21:57;6.70;82.90
16627;DHT22;8427;52.204;7.202;2024-01-25T02:24:28;6.60;83.40
16627;DHT22;8427;52.204;7.202;2024-01-25T02:26:57;6.70;83.40
16627;DHT22;8427;52.204;7.202;2024-01-25T02:29:25;6.50;83.70
16627;DHT22;8427;52.204;7.202;2024-01-25T02:31:54;6.80;83.40
16627;DHT22;8427;52.204;7.202;2024-01-25T02:34:22;6.80;83.50
16627;DHT22;8427;52.204;7.202;2024-01-25T02:36:51;6.60;83.70
16627;DHT22;8427;52.204;7.202;2024-01-25T02:39:20;6.90;83.60
16627;DHT22;8427;52.204;7.202;2024-01-25T02:41:50;6.70;83.60
16627;DHT22;8427;52.204;7.202;2024-01-25T02:44:18;6.70;83.80
16627;DHT22;8427;52.204;7.202;2024-01-25T02:46:47;6.70;83.90
16627;DHT22;8427;52.204;7.202;2024-01-25T02:49:15;6.50;84.20
16627;DHT22;8427;52.204;7.202;2024-01-25T02:51:44;6.50;84.20
16627;DHT22;8427;52.204;7.202;2024-01-25T02:54:13;6.50;84.60
16627;DHT22;8427;52.204;7.202;2024-01-25T02:56:41;6.40;84.60
16627;DHT22;8427;52.204;7.202;2024-01-25T02:59:12;6.10;84.90
16627;DHT22;8427;52.204;7.202;2024-01-25T03:01:41;6.10;85.00
16627;DHT22;8427;52.204;7.202;2024-01-25T03:04:10;6.10;85.20
16627;DHT22;8427;52.204;7.202;2024-01-25T03:06:39;6.30;85.40
16627;DHT22;8427;52.204;7.202;2024-01-25T03:09:07;6.10;85.60
16627;DHT22;8427;52.204;7.202;2024-01-25T03:11:36;6.30;85.50
16627;DHT22;8427;52.204;7.202;2024-01-25T03:14:05;6.10;85.70
16627;DHT22;8427;52.204;7.202;2024-01-25T03:16:35;6.20;85.70
16627;DHT22;8427;52.204;7.202;2024-01-25T03:19:03;6.00;85.50
16627;DHT22;8427;52.204;7.202;2024-01-25T03:21:32;6.10;85.80
16627;DHT22;8427;52.204;7.202;2024-01-25T03:24:01;6.00;86.00
16627;DHT22;8427;52.204;7.202;2024-01-25T03:26:29;5.90;86.20
16627;DHT22;8427;52.204;7.202;2024-01-25T03:28:58;6.00;86.30
16627;DHT22;8427;52.204;7.202;2024-01-25T03:31:26;6.00;86.30
16627;DHT22;8427;52.204;7.202;2024-01-25T03:33:56;5.90;86.30
16627;DHT22;8427;52.204;7.202;2024-01-25T03:36:25;6.00;86.50
16627;DHT22;8427;52.204;7.202;2024-01-25T03:38:53;5.90;86.60
16627;DHT22;8427;52.204;7.202;2024-01-25T03:41:22;5.80;86.70
16627;DHT22;8427;52.204;7.202;2024-01-25T03:43:51;5.60;86.80
16627;DHT22;8427;52.204;7.202;2024-01-25T03:46:19;5.60;87.00
16627;DHT22;8427;52.204;7.202;2024-01-25T03:48:48;5.70;87.20
16627;DHT22;8427;52.204;7.202;2024-01-25T03:51:18;5.60;87.30
16627;DHT22;8427;52.204;7.202;2024-01-25T03:53:47;5.60;87.50
16627;DHT22;8427;52.204;7.202;2024-01-25T03:56:16;5.60;87.50
16627;DHT22;8427;52.204;7.202;2024-01-25T03:58:45;5.60;87.60
16627;DHT22;8427;52.204;7.202;2024-01-25T04:01:14;5.40;87.60
16627;DHT22;8427;52.204;7.202;2024-01-25T04:03:42;5.50;87.70
16627;DHT22;8427;52.204;7.202;2024-01-25T04:06:11;5.40;87.90
16627;DHT22;8427;52.204;7.202;2024-01-25T04:08:41;5.20;88.00
16627;DHT22;8427;52.204;7.202;2024-01-25T04:11:10;5.40;88.10
16627;DHT22;8427;52.204;7.202;2024-01-25T04:13:38;5.30;88.20
16627;DHT22;8427;52.204;7.202;2024-01-25T04:16:08;5.30;88.30
16627;DHT22;8427;52.204;7.202;2024-01-25T04:18:36;5.30;88.40
16627;DHT22;8427;52.204;7.202;2024-01-25T04:21:05;5.20;88.50
16627;DHT22;8427;52.204;7.202;2024-01-25T04:23:34;5.30;88.60
16627;DHT22;8427;52.204;7.202;2024-01-25T04:26:04;5.10;88.40
16627;DHT22;8427;52.204;7.202;2024-01-25T04:28:32;5.20;88.60
16627;DHT22;8427;52.204;7.202;2024-01-25T04:31:02;5.10;88.70
16627;DHT22;8427;52.204;7.202;2024-01-25T04:33:31;5.10;88.60
16627;DHT22;8427;52.204;7.202;2024-01-25T04:36:00;5.10;88.50
16627;DHT22;8427;52.204;7.202;2024-01-25T04:38:28;5.10;88.60
16627;DHT22;8427;52.204;7.202;2024-01-25T04:40:57;5.00;88.80
16627;DHT22;8427;52.204;7.202;2024-01-25T04:43:27;4.90;88.90
16627;DHT22;8427;52.204;7.202;2024-01-25T04:45:56;4.90;89.00
16627;DHT22;8427;52.204;7.202;2024-01-25T04:48:24;4.90;89.00
16627;DHT22;8427;52.204;7.202;2024-01-25T04:50:53;5.00;89.20
16627;DHT22;8427;52.204;7.202;2024-01-25T04:53:21;4.90;89.10
16627;DHT22;8427;52.204;7.202;2024-01-25T04:55:49;5.00;89.00
16627;DHT22;8427;52.204;7.202;2024-01-25T04:58:18;4.90;89.20
16627;DHT22;8427;52.204;7.202;2024-01-25T05:00:48;4.90;89.20
16627;DHT22;8427;52.204;7.202;2024-01-25T05:03:18;4.80;89.20
16627;DHT22;8427;52.204;7.202;2024-01-25T05:05:48;4.80;89.50
16627;DHT22;8427;52.204;7.202;2024-01-25T05:08:16;4.80;89.50
16627;DHT22;8427;52.204;7.202;2024-01-25T05:10:45;4.60;89.60
16627;DHT22;8427;52.204;7.202;2024-01-25T05:13:13;4.50;89.80
16627;DHT22;8427;52.204;7.202;2024-01-25T05:15:42;4.50;89.90
16627;DHT22;8427;52.204;7.202;2024-01-25T05:18:12;4.50;89.80
16627;DHT22;8427;52.204;7.202;2024-01-25T05:20:40;4.70;89.70
16627;DHT22;8427;52.204;7.202;2024-01-25T05:23:09;4.60;89.90
16627;DHT22;8427;52.204;7.202;2024-01-25T05:25:37;4.60;90.10
16627;DHT22;8427;52.204;7.202;2024-01-25T05:28:06;4.50;90.40
16627;DHT22;8427;52.204;7.202;2024-01-25T05:30:34;4.40;90.30
16627;DHT22;8427;52.204;7.202;2024-01-25T05:33:03;4.60;90.30
16627;DHT22;8427;52.204;7.202;2024-01-25T05:35:34;4.40;90.40
16627;DHT22;8427;52.204;7.202;2024-01-25T05:38:03;4.60;90.50
16627;DHT22;8427;52.204;7.202;2024-01-25T05:40:31;4.30;90.40
16627;DHT22;8427;52.204;7.202;2024-01-25T05:43:00;4.40;90.40
16627;DHT22;8427;52.204;7.202;2024-01-25T05:45:28;4.20;90.60
16627;DHT22;8427;52.204;7.202;2024-01-25T05:47:57;4.40;90.50
16627;DHT22;8427;52.204;7.202;2024-01-25T05:50:26;4.10;90.60
16627;DHT22;8427;52.204;7.202;2024-01-25T05:52:56;4.20;90.70
16627;DHT22;8427;52.204;7.202;2024-01-25T05:55:25;4.20;91.00
16627;DHT22;8427;52.204;7.202;2024-01-25T05:57:53;4.50;91.00
16627;DHT22;8427;52.204;7.202;2024-01-25T06:00:22;4.10;90.90
16627;DHT22;8427;52.204;7.202;2024-01-25T06:02:50;4.10;91.00
16627;DHT22;8427;52.204;7.202;2024-01-25T06:05:19;4.40;91.10
16627;DHT22;8427;52.204;7.202;2024-01-25T06:07:48;4.00;91.10
16627;DHT22;8427;52.204;7.202;2024-01-25T06:10:19;3.90;91.00
16627;DHT22;8427;52.204;7.202;2024-01-25T06:12:48;4.10;91.30
16627;DHT22;8427;52.204;7.202;2024-01-25T06:15:17;4.00;91.30
16627;DHT22;8427;52.204;7.202;2024-01-25T06:17:45;4.00;91.40
16627;DHT22;8427;52.204;7.202;2024-01-25T06:20:14;3.90;91.50
16627;DHT22;8427;52.204;7.202;2024-01-25T06:22:43;4.00;91.60
16627;DHT22;8427;52.204;7.202;2024-01-25T06:25:11;3.80;91.60
16627;DHT22;8427;52.204;7.202;2024-01-25T06:27:41;4.20;91.70
16627;DHT22;8427;52.204;7.202;2024-01-25T06:30:11;4.00;91.90
16627;DHT22;8427;52.204;7.202;2024-01-25T06:32:40;4.10;91.70
16627;DHT22;8427;52.204;7.202;2024-01-25T06:35:08;4.00;91.90
16627;DHT22;8427;52.204;7.202;2024-01-25T06:37:37;4.00;91.70
16627;DHT22;8427;52.204;7.202;2024-01-25T06:40:07;4.00;91.90
16627;DHT22;8427;52.204;7.202;2024-01-25T06:42:36;4.00;91.90
16627;DHT22;8427;52.204;7.202;2024-01-25T06:45:06;3.90;91.90
16627;DHT22;8427;52.204;7.202;2024-01-25T06:47:35;4.10;92.00
16627;DHT22;8427;52.204;7.202;2024-01-25T06:50:04;3.90;91.90
16627;DHT22;8427;52.204;7.202;2024-01-25T06:52:33;4.10;92.00
16627;DHT22;8427;52.204;7.202;2024-01-25T06:55:02;4.00;92.10
16627;DHT22;8427;52.204;7.202;2024-01-25T06:57:31;4.00;92.20
16627;DHT22;8427;52.204;7.202;2024-01-25T07:00:00;3.90;92.20
16627;DHT22;8427;52.204;7.202;2024-01-25T07:02:30;3.70;92.10
16627;DHT22;8427;52.204;7.202;2024-01-25T07:04:59;4.00;92.20
16627;DHT22;8427;52.204;7.202;2024-01-25T07:07:29;3.70;92.20
16627;DHT22;8427;52.204;7.202;2024-01-25T07:09:59;3.80;92.20
16627;DHT22;8427;52.204;7.202;2024-01-25T07:12:29;3.80;92.30
16627;DHT22;8427;52.204;7.202;2024-01-25T07:14:58;3.80;92.40
16627;DHT22;8427;52.204;7.202;2024-01-25T07:17:26;3.90;92.40
16627;DHT22;8427;52.204;7.202;2024-01-25T07:19:56;3.80;92.50
16627;DHT22;8427;52.204;7.202;2024-01-25T07:22:25;3.80;92.30
16627;DHT22;8427;52.204;7.202;2024-01-25T07:24:54;3.60;92.40
16627;DHT22;8427;52.204;7.202;2024-01-25T07:27:22;3.80;92.30
16627;DHT22;8427;52.204;7.202;2024-01-25T07:29:51;3.90;92.40
16627;DHT22;8427;52.204;7.202;2024-01-25T07:32:19;3.90;92.40
16627;DHT22;8427;52.204;7.202;2024-01-25T07:34:48;3.80;92.40
16627;DHT22;8427;52.204;7.202;2024-01-25T07:37:19;3.80;92.50
16627;DHT22;8427;52.204;7.202;2024-01-25T07:39:47;3.60;92.50
16627;DHT22;8427;52.204;7.202;2024-01-25T07:42:16;3.80;92.60
16627;DHT22;8427;52.204;7.202;2024-01-25T07:44:45;3.70;92.50
16627;DHT22;8427;52.204;7.202;2024-01-25T07:47:14;3.90;92.50
16627;DHT22;8427;52.204;7.202;2024-01-25T07:49:42;3.70;92.60
16627;DHT22;8427;52.204;7.202;2024-01-25T07:52:11;3.80;92.60
16627;DHT22;8427;52.204;7.202;2024-01-25T07:54:41;3.80;92.70
16627;DHT22;8427;52.204;7.202;2024-01-25T07:57:09;3.70;92.70
16627;DHT22;8427;52.204;7.202;2024-01-25T07:59:38;4.00;92.50
16627;DHT22;8427;52.204;7.202;2024-01-25T08:02:06;4.30;92.60
16627;DHT22;8427;52.204;7.202;2024-01-25T08:04:35;3.90;92.60
16627;DHT22;8427;52.204;7.202;2024-01-25T08:07:03;3.90;92.70
16627;DHT22;8427;52.204;7.202;2024-01-25T08:09:32;4.00;92.60
16627;DHT22;8427;52.204;7.202;2024-01-25T08:12:02;4.10;92.60
16627;DHT22;8427;52.204;7.202;2024-01-25T08:14:31;4.10;92.60
16627;DHT22;8427;52.204;7.202;2024-01-25T08:16:59;4.10;92.50
16627;DHT22;8427;52.204;7.202;2024-01-25T08:19:28;4.30;92.50
16627;DHT22;8427;52.204;7.202;2024-01-25T08:21:57;4.30;92.50
16627;DHT22;8427;52.204;7.202;2024-01-25T08:24:25;4.30;92.30
16627;DHT22;8427;52.204;7.202;2024-01-25T08:26:54;4.50;92.30
16627;DHT22;8427;52.204;7.202;2024-01-25T08:29:24;4.40;92.20
16627;DHT22;8427;52.204;7.202;2024-01-25T08:31:52;4.60;92.10
16627;DHT22;8427;52.204;7.202;2024-01-25T08:34:21;4.50;92.00
16627;DHT22;8427;52.204;7.202;2024-01-25T08:36:49;4.40;91.80
16627;DHT22;8427;52.204;7.202;2024-01-25T08:39:18;4.50;91.70
16627;DHT22;8427;52.204;7.202;2024-01-25T08:41:47;4.70;91.70
16627;DHT22;8427;52.204;7.202;2024-01-25T08:44:17;4.60;91.60
16627;DHT22;8427;52.204;7.202;2024-01-25T08:46:47;4.40;91.50
16627;DHT22;8427;52.204;7.202;2024-01-25T08:49:16;4.70;91.40
16627;DHT22;8427;52.204;7.202;2024-01-25T08:51:45;4.60;91.40
16627;DHT22;8427;52.204;7.202;2024-01-25T08:54:13;4.60;91.30
16627;DHT22;8427;52.204;7.202;2024-01-25T08:56:42;4.90;91.10
16627;DHT22;8427;52.204;7.202;2024-01-25T08:59:11;4.90;91.00
16627;DHT22;8427;52.204;7.202;2024-01-25T09:01:39;5.00;90.90
16627;DHT22;8427;52.204;7.202;2024-01-25T09:04:09;5.00;90.80
16627;DHT22;8427;52.204;7.202;2024-01-25T09:06:38;5.00;90.80
16627;DHT22;8427;52.204;7.202;2024-01-25T09:09:07;5.10;90.70
16627;DHT22;8427;52.204;7.202;2024-01-25T09:11:38;4.90;90.50
16627;DHT22;8427;52.204;7.202;2024-01-25T09:14:06;5.10;90.60
16627;DHT22;8427;52.204;7.202;2024-01-25T09:16:35;5.30;90.60
16627;DHT22;8427;52.204;7.202;2024-01-25T09:19:04;5.20;90.50
16627;DHT22;8427;52.204;7.202;2024-01-25T09:21:37;5.20;90.60
16627;DHT22;8427;52.204;7.202;2024-01-25T09:24:06;5.40;90.40
16627;DHT22;8427;52.204;7.202;2024-01-25T09:26:35;5.00;90.10
16627;DHT22;8427;52.204;7.202;2024-01-25T09:29:03;5.20;90.20
16627;DHT22;8427;52.204;7.202;2024-01-25T09:31:32;5.20;90.10
16627;DHT22;8427;52.204;7.202;2024-01-25T09:34:01;5.20;90.30
16627;DHT22;8427;52.204;7.202;2024-01-25T09:36:30;5.20;90.30
16627;DHT22;8427;52.204;7.202;2024-01-25T09:39:00;5.30;90.10
16627;DHT22;8427;52.204;7.202;2024-01-25T09:41:29;5.30;90.10
16627;DHT22;8427;52.204;7.202;2024-01-25T09:43:58;5.20;90.10
16627;DHT22;8427;52.204;7.202;2024-01-25T09:46:27;5.40;90.00
16627;DHT22;8427;52.204;7.202;2024-01-25T09:48:56;5.50;89.80
16627;DHT22;8427;52.204;7.202;2024-01-25T09:51:25;5.50;89.90
16627;DHT22;8427;52.204;7.202;2024-01-25T09:53:54;5.60;89.70
16627;DHT22;8427;52.204;7.202;2024-01-25T09:56:25;5.60;89.80
16627;DHT22;8427;52.204;7.202;2024-01-25T09:58:55;5.70;89.50
16627;DHT22;8427;52.204;7.202;2024-01-25T10:01:24;5.80;89.20
16627;DHT22;8427;52.204;7.202;2024-01-25T10:03:53;5.90;89.20
16627;DHT22;8427;52.204;7.202;2024-01-25T10:06:23;5.80;88.70
16627;DHT22;8427;52.204;7.202;2024-01-25T10:08:53;5.90;88.60
16627;DHT22;8427;52.204;7.202;2024-01-25T10:11:22;5.90;88.50
16627;DHT22;8427;52.204;7.202;2024-01-25T10:13:52;6.20;88.40
16627;DHT22;8427;52.204;7.202;2024-01-25T10:16:24;6.10;88.40
16627;DHT22;8427;52.204;7.202;2024-01-25T10:18:53;6.10;88.20
16627;DHT22;8427;52.204;7.202;2024-01-25T10:21:21;6.20;88.20
16627;DHT22;8427;52.204;7.202;2024-01-25T10:23:50;6.10;88.30
16627;DHT22;8427;52.204;7.202;2024-01-25T10:26:21;6.20;87.90
16627;DHT22;8427;52.204;7.202;2024-01-25T10:28:52;6.30;88.10
16627;DHT22;8427;52.204;7.202;2024-01-25T10:31:29;6.10;87.90
16627;DHT22;8427;52.204;7.202;2024-01-25T10:33:59;6.40;88.00
16627;DHT22;8427;52.204;7.202;2024-01-25T10:36:29;6.30;87.90
16627;DHT22;8427;52.204;7.202;2024-01-25T10:38:59;6.40;88.10
16627;DHT22;8427;52.204;7.202;2024-01-25T10:41:31;6.20;87.90
16627;DHT22;8427;52.204;7.202;2024-01-25T10:44:03;6.30;88.00
16627;DHT22;8427;52.204;7.202;2024-01-25T10:46:34;6.30;88.00
16627;DHT22;8427;52.204;7.202;2024-01-25T10:49:03;6.30;87.70
16627;DHT22;8427;52.204;7.202;2024-01-25T10:51:33;6.40;87.90
16627;DHT22;8427;52.204;7.202;2024-01-25T10:54:03;6.40;87.60
16627;DHT22;8427;52.204;7.202;2024-01-25T10:56:35;6.40;87.50
16627;DHT22;8427;52.204;7.202;2024-01-25T10:59:06;6.40;87.50
16627;DHT22;8427;52.204;7.202;2024-01-25T11:01:35;6.60;87.60
16627;DHT22;8427;52.204;7.202;2024-01-25T11:04:12;6.50;87.10
16627;DHT22;8427;52.204;7.202;2024-01-25T11:06:41;6.70;87.30
16627;DHT22;8427;52.204;7.202;2024-01-25T11:09:09;6.80;87.30
16627;DHT22;8427;52.204;7.202;2024-01-25T11:11:44;7.00;87.10
16627;DHT22;8427;52.204;7.202;2024-01-25T11:14:15;7.00;86.80
16627;DHT22;8427;52.204;7.202;2024-01-25T11:16:44;7.00;86.30
16627;DHT22;8427;52.204;7.202;2024-01-25T11:19:18;6.80;86.20
16627;DHT22;8427;52.204;7.202;2024-01-25T11:21:48;7.00;86.30
16627;DHT22;8427;52.204;7.202;2024-01-25T11:24:22;7.10;86.30
16627;DHT22;8427;52.204;7.202;2024-01-25T11:26:50;7.00;86.30
16627;DHT22;8427;52.204;7.202;2024-01-25T11:29:21;7.00;86.20
16627;DHT22;8427;52.204;7.202;2024-01-25T11:31:51;6.90;86.00
16627;DHT22;8427;52.204;7.202;2024-01-25T11:34:20;7.00;85.90
16627;DHT22;8427;52.204;7.202;2024-01-25T11:36:50;7.00;85.90
16627;DHT22;8427;52.204;7.202;2024-01-25T11:39:19;6.90;86.10
16627;DHT22;8427;52.204;7.202;2024-01-25T11:41:48;6.90;85.90
16627;DHT22;8427;52.204;7.202;2024-01-25T11:44:20;6.90;86.20
16627;DHT22;8427;52.204;7.202;2024-01-25T11:46:53;7.00;86.20
16627;DHT22;8427;52.204;7.202;2024-01-25T11:49:24;7.10;86.20
16627;DHT22;8427;52.204;7.202;2024-01-25T11:51:53;7.10;86.00
16627;DHT22;8427;52.204;7.202;2024-01-25T11:54:21;7.00;86.00
16627;DHT22;8427;52.204;7.202;2024-01-25T11:56:50;7.00;86.10
16627;DHT22;8427;52.204;7.202;2024-01-25T11:59:20;7.00;85.90
16627;DHT22;8427;52.204;7.202;2024-01-25T12:01:49;7.30;85.20
16627;DHT22;8427;52.204;7.202;2024-01-25T12:04:17;7.20;85.60
16627;DHT22;8427;52.204;7.202;2024-01-25T12:06:47;7.30;85.20
16627;DHT22;8427;52.204;7.202;2024-01-25T12:09:17;7.30;85.40
16627;DHT22;8427;52.204;7.202;2024-01-25T12:11:49;7.30;84.90
16627;DHT22;8427;52.204;7.202;2024-01-25T12:14:20;7.40;84.50
16627;DHT22;8427;52.204;7.202;2024-01-25T12:16:48;7.50;84.30
16627;DHT22;8427;52.204;7.202;2024-01-25T12:19:17;7.80;84.10
16627;DHT22;8427;52.204;7.202;2024-01-25T12:21:47;7.60;84.10
16627;DHT22;8427;52.204;7.202;2024-01-25T12:24:15;7.90;83.90
16627;DHT22;8427;52.204;7.202;2024-01-25T12:26:44;7.80;83.70
16627;DHT22;8427;52.204;7.202;2024-01-25T12:29:12;8.10;83.10
16627;DHT22;8427;52.204;7.202;2024-01-25T12:31:43;7.90;82.90
16627;DHT22;8427;52.204;7.202;2024-01-25T12:34:13;7.90;83.20
16627;DHT22;8427;52.204;7.202;2024-01-25T12:36:43;7.90;83.20
16627;DHT22;8427;52.204;7.202;2024-01-25T12:39:12;8.00;83.00
16627;DHT22;8427;52.204;7.202;2024-01-25T12:41:46;7.70;82.80
16627;DHT22;8427;52.204;7.202;2024-01-25T12:44:15;7.90;82.90
16627;DHT22;8427;52.204;7.202;2024-01-25T12:46:45;7.80;83.20
16627;DHT22;8427;52.204;7.202;2024-01-25T12:49:14;8.00;82.70
16627;DHT22;8427;52.204;7.202;2024-01-25T12:51:43;8.10;82.40
16627;DHT22;8427;52.204;7.202;2024-01-25T12:54:11;8.30;82.10
16627;DHT22;8427;52.204;7.202;2024-01-25T12:56:40;8.40;81.60
16627;DHT22;8427;52.204;7.202;2024-01-25T12:59:10;8.40;81.50
16627;DHT22;8427;52.204;7.202;2024-01-25T13:01:39;8.30;81.00
16627;DHT22;8427;52.204;7.202;2024-01-25T13:04:10;8.50;80.50
16627;DHT22;8427;52.204;7.202;2024-01-25T13:06:38;8.50;80.30
16627;DHT22;8427;52.204;7.202;2024-01-25T13:09:07;8.30;80.20
16627;DHT22;8427;52.204;7.202;2024-01-25T13:11:36;8.30;80.50
16627;DHT22;8427;52.204;7.202;2024-01-25T13:14:04;8.30;80.50
16627;DHT22;8427;52.204;7.202;2024-01-25T13:16:33;8.30;80.40
16627;DHT22;8427;52.204;7.202;2024-01-25T13:19:02;8.20;80.80
16627;DHT22;8427;52.204;7.202;2024-01-25T13:21:32;8.40;80.70
16627;DHT22;8427;52.204;7.202;2024-01-25T13:24:00;8.50;79.90
16627;DHT22;8427;52.204;7.202;2024-01-25T13:26:29;8.40;80.20
16627;DHT22;8427;52.204;7.202;2024-01-25T13:28:57;8.40;80.00
16627;DHT22;8427;52.204;7.202;2024-01-25T13:31:26;8.30;79.70
16627;DHT22;8427;52.204;7.202;2024-01-25T13:33:55;8.50;80.00
16627;DHT22;8427;52.204;7.202;2024-01-25T13:36:23;8.50;80.20
16627;DHT22;8427;52.204;7.202;2024-01-25T13:38:53;8.40;79.80
16627;DHT22;8427;52.204;7.202;2024-01-25T13:41:22;8.50;80.00
16627;DHT22;8427;52.204;7.202;2024-01-25T13:43:50;8.30;79.90
16627;DHT22;8427;52.204;7.202;2024-01-25T13:46:19;8.20;80.10
16627;DHT22;8427;52.204;7.202;2024-01-25T13:48:50;8.30;80.00
16627;DHT22;8427;52.204;7.202;2024-01-25T13:51:19;8.20;80.00
16627;DHT22;8427;52.204;7.202;2024-01-25T13:53:47;8.10;79.30
16627;DHT22;8427;52.204;7.202;2024-01-25T13:56:18;8.10;79.80
16627;DHT22;8427;52.204;7.202;2024-01-25T13:58:46;8.10;79.70
16627;DHT22;8427;52.204;7.202;2024-01-25T14:01:15;8.40;79.40
16627;DHT22;8427;52.204;7.202;2024-01-25T14:03:43;8.30;79.50
16627;DHT22;8427;52.204;7.202;2024-01-25T14:06:12;8.20;79.30
16627;DHT22;8427;52.204;7.202;2024-01-25T14:08:41;8.40;80.00
16627;DHT22;8427;52.204;7.202;2024-01-25T14:11:10;8.20;79.90
16627;DHT22;8427;52.204;7.202;2024-01-25T14:13:40;8.40;80.00
16627;DHT22;8427;52.204;7.202;2024-01-25T14:16:08;8.30;80.20
16627;DHT22;8427;52.204;7.202;2024-01-25T14:18:43;8.40;80.20
16627;DHT22;8427;52.204;7.202;2024-01-25T14:21:12;8.30;80.20
16627;DHT22;8427;52.204;7.202;2024-01-25T14:23:43;8.40;80.10
16627;DHT22;8427;52.204;7.202;2024-01-25T14:26:12;8.30;80.10
16627;DHT22;8427;52.204;7.202;2024-01-25T14:28:42;8.30;80.30
16627;DHT22;8427;52.204;7.202;2024-01-25T14:31:11;8.30;80.30
16627;DHT22;8427;52.204;7.202;2024-01-25T14:33:39;8.10;80.20
16627;DHT22;8427;52.204;7.202;2024-01-25T14:36:12;8.20;80.10
16627;DHT22;8427;52.204;7.202;2024-01-25T14:38:42;8.10;80.30
16627;DHT22;8427;52.204;7.202;2024-01-25T14:41:10;8.10;80.40
16627;DHT22;8427;52.204;7.202;2024-01-25T14:43:39;8.20;80.50
16627;DHT22;8427;52.204;7.202;2024-01-25T14:46:10;8.00;80.20
16627;DHT22;8427;52.204;7.202;2024-01-25T14:48:39;8.00;80.30
16627;DHT22;8427;52.204;7.202;2024-01-25T14:51:07;7.80;80.50
16627;DHT22;8427;52.204;7.202;2024-01-25T14:53:36;7.90;80.60
16627;DHT22;8427;52.204;7.202;2024-01-25T14:56:05;7.90;80.60
16627;DHT22;8427;52.204;7.202;2024-01-25T14:58:33;8.00;80.30
16627;DHT22;8427;52.204;7.202;2024-01-25T15:01:02;7.90;80.60
16627;DHT22;8427;52.204;7.202;2024-01-25T15:03:32;7.80;80.90
16627;DHT22;8427;52.204;7.202;2024-01-25T15:06:01;7.90;81.40
16627;DHT22;8427;52.204;7.202;2024-01-25T15:08:30;7.80;81.50
16627;DHT22;8427;52.204;7.202;2024-01-25T15:10:58;7.60;81.50
16627;DHT22;8427;52.204;7.202;2024-01-25T15:13:27;7.80;81.60
16627;DHT22;8427;52.204;7.202;2024-01-25T15:15:55;7.70;81.60
16627;DHT22;8427;52.204;7.202;2024-01-25T15:18:24;7.60;81.80
16627;DHT22;8427;52.204;7.202;2024-01-25T15:20:54;7.50;81.80
16627;DHT22;8427;52.204;7.202;2024-01-25T15:23:22;7.50;81.90
16627;DHT22;8427;52.204;7.202;2024-01-25T15:25:51;7.40;82.00
16627;DHT22;8427;52.204;7.202;2024-01-25T15:28:20;7.30;82.40
16627;DHT22;8427;52.204;7.202;2024-01-25T15:30:49;7.10;82.70
16627;DHT22;8427;52.204;7.202;2024-01-25T15:33:18;7.00;82.90
16627;DHT22;8427;52.204;7.202;2024-01-25T15:35:47;7.00;83.20
16627;DHT22;8427;52.204;7.202;2024-01-25T15:38:17;6.90;83.40
16627;DHT22;8427;52.204;7.202;2024-01-25T15:40:47;7.10;83.50
16627;DHT22;8427;52.204;7.202;2024-01-25T15:43:15;7.00;83.80
16627;DHT22;8427;52.204;7.202;2024-01-25T15:45:44;7.10;83.90
16627;DHT22;8427;52.204;7.202;2024-01-25T15:48:13;7.10;84.10
16627;DHT22;8427;52.204;7.202;2024-01-25T15:50:41;6.80;84.10
16627;DHT22;8427;52.204;7.202;2024-01-25T15:53:10;6.90;84.40
16627;DHT22;8427;52.204;7.202;2024-01-25T15:55:40;7.00;84.50
16627;DHT22;8427;52.204;7.202;2024-01-25T15:58:09;6.80;84.70
16627;DHT22;8427;52.204;7.202;2024-01-25T16:00:52;6.80;84.70
16627;DHT22;8427;52.204;7.202;2024-01-25T16:03:21;6.70;84.80
16627;DHT22;8427;52.204;7.202;2024-01-25T16:05:50;6.90;84.90
16627;DHT22;8427;52.204;7.202;2024-01-25T16:08:20;6.90;84.90
16627;DHT22;8427;52.204;7.202;2024-01-25T16:10:50;6.80;84.90
16627;DHT22;8427;52.204;7.202;2024-01-25T16:13:19;6.80;85.20